Lewisville, Texas
Current Conditions -  °F | °C
As of 4:53 PM on Wednesday 26 Nov 2014 (Local Time) from KDFW Reporting Station
Few Clouds Few Clouds  
Wind Chill: 60°   Ceiling: Unl
Heat Index: 60°   Visibility: 10mi
Dew Point: 34°   Wind: 10mph
Humidity: 38%   Direction: 340°NNW
Pressure: 30.23"   Gusts: NA
Location:  33.0541°N, 97.0363°W
Report Text: KDFW 262253Z 34009KT 10SM FEW300 16/01 A3023 RMK AO2 SLP234 T01560011
Loading
Personal Weather Stations






























Interactive Weather Map New forecast layout! Learn more

10-Day Weather Forecast

Advertisements
Track Severe Weather on mobile